Time;durP1;ratioP1;P1;durP2;ratioP2;P2;SDS_P1;SDS_P2;PMS_P1;PMS_P2;Temp;Humidity;BMP_temperature;BMP_pressure;BME280_temperature;BME280_humidity;BME280_pressure;Samples;Min_cycle;Max_cycle;Signal;HPM_P1;HPM_P2
2021/10/19 00:01:47;;;;;;;71.00;39.15;;;6.40;99.90;;;;;;6284940;22;20051;-90
2021/10/19 00:04:35;;;;;;;66.22;37.30;;;6.70;99.90;;;;;;6287147;22;20037;-90
2021/10/19 00:07:23;;;;;;;61.95;35.65;;;6.80;99.90;;;;;;6263856;22;20071;-91
2021/10/19 00:10:14;;;;;;;58.28;34.58;;;6.90;99.90;;;;;;6266328;22;20027;-90
2021/10/19 00:13:02;;;;;;;53.50;33.22;;;6.90;99.90;;;;;;6309638;22;20027;-91
2021/10/19 00:15:50;;;;;;;59.08;32.45;;;7.00;99.90;;;;;;6285900;22;20381;-91
2021/10/19 00:18:39;;;;;;;57.15;31.58;;;7.10;99.90;;;;;;6287696;22;20148;-92
2021/10/19 00:21:27;;;;;;;49.88;31.08;;;7.10;99.90;;;;;;6308374;22;20040;-90
2021/10/19 00:24:14;;;;;;;51.53;30.83;;;7.10;99.90;;;;;;6309743;22;20023;-92
2021/10/19 00:27:02;;;;;;;51.83;30.02;;;7.20;99.90;;;;;;6311359;22;20469;-90
2021/10/19 00:29:54;;;;;;;44.08;28.20;;;7.20;99.90;;;;;;6292002;22;20103;-92
2021/10/19 00:32:43;;;;;;;44.88;26.38;;;7.30;99.90;;;;;;6314065;22;20030;-90
2021/10/19 00:35:30;;;;;;;42.10;26.75;;;7.40;99.90;;;;;;6290856;22;20122;-91
2021/10/19 00:38:18;;;;;;;35.08;24.58;;;7.40;99.90;;;;;;6294391;22;20023;-91
2021/10/19 00:41:05;;;;;;;36.03;24.25;;;7.40;99.90;;;;;;6292545;22;20043;-90
2021/10/19 00:43:53;;;;;;;34.70;23.17;;;7.40;99.90;;;;;;6316366;22;20027;-91
2021/10/19 00:46:42;;;;;;;33.95;23.30;;;7.50;99.90;;;;;;6291948;22;20057;-91
2021/10/19 00:49:29;;;;;;;35.58;22.67;;;7.50;99.90;;;;;;6267553;22;20023;-90
2021/10/19 00:52:18;;;;;;;33.08;21.92;;;7.50;99.90;;;;;;6298888;22;20038;-87
2021/10/19 00:55:09;;;;;;;35.75;22.52;;;7.30;99.90;;;;;;6309394;22;20028;-90
2021/10/19 00:57:56;;;;;;;35.80;22.63;;;7.20;99.90;;;;;;6308638;22;20073;-91
2021/10/19 01:00:43;;;;;;;33.50;22.42;;;7.30;99.90;;;;;;6275525;22;20031;-91
2021/10/19 01:03:32;;;;;;;31.63;21.48;;;7.60;99.90;;;;;;6275437;22;20027;-89
2021/10/19 01:06:20;;;;;;;29.27;20.77;;;7.70;99.90;;;;;;6274617;22;20031;-90
2021/10/19 01:09:09;;;;;;;29.70;19.00;;;7.90;99.90;;;;;;6277996;22;20079;-91
2021/10/19 01:11:56;;;;;;;25.23;18.08;;;8.00;99.90;;;;;;6255454;22;20024;-87
2021/10/19 01:14:43;;;;;;;23.55;17.35;;;8.00;99.90;;;;;;6253959;22;20051;-90
2021/10/19 01:17:41;;;;;;;23.55;17.00;;;8.10;99.90;;;;;;6254039;22;20050;-88
2021/10/19 01:20:35;;;;;;;26.77;16.67;;;8.20;99.90;;;;;;6258145;22;20032;-89
2021/10/19 01:23:25;;;;;;;25.95;16.58;;;8.20;99.90;;;;;;6281101;22;20085;-90
2021/10/19 01:26:17;;;;;;;22.77;16.85;;;8.30;99.90;;;;;;6281576;22;20031;-90
2021/10/19 01:29:05;;;;;;;19.92;16.05;;;8.20;99.90;;;;;;6281421;22;20048;-90
2021/10/19 01:31:56;;;;;;;27.20;16.88;;;8.10;99.90;;;;;;6265486;22;20409;-90
2021/10/19 01:34:44;;;;;;;22.10;15.70;;;8.10;99.90;;;;;;6244389;22;20031;-89
2021/10/19 01:37:32;;;;;;;25.15;16.50;;;8.10;99.90;;;;;;6284225;22;20027;-90
2021/10/19 01:40:19;;;;;;;22.80;14.60;;;8.10;99.90;;;;;;6277093;22;20105;-88
2021/10/19 01:43:19;;;;;;;21.70;15.20;;;8.20;99.90;;;;;;6254838;22;20030;-89
2021/10/19 01:46:07;;;;;;;23.70;14.38;;;8.30;99.90;;;;;;6277223;22;20019;-90
2021/10/19 01:48:56;;;;;;;18.00;13.40;;;8.40;99.90;;;;;;6276084;22;20027;-86
2021/10/19 01:51:45;;;;;;;18.55;13.38;;;8.50;99.90;;;;;;6254884;22;20107;-89
2021/10/19 01:54:32;;;;;;;18.05;11.95;;;8.50;99.90;;;;;;6253273;22;20020;-89
2021/10/19 01:57:23;;;;;;;15.45;11.38;;;8.60;99.90;;;;;;6254800;22;20073;-90
2021/10/19 02:00:11;;;;;;;17.25;11.18;;;8.60;99.90;;;;;;6279945;22;20026;-90
2021/10/19 02:02:58;;;;;;;14.68;10.70;;;8.70;99.90;;;;;;6283599;22;20033;-87
2021/10/19 02:05:47;;;;;;;14.88;10.27;;;8.70;99.90;;;;;;6285835;22;20408;-87
2021/10/19 02:08:35;;;;;;;11.40;9.07;;;8.80;99.90;;;;;;6287244;22;20129;-89
2021/10/19 02:11:26;;;;;;;13.82;9.38;;;8.90;99.90;;;;;;6307200;22;20030;-89
2021/10/19 02:14:13;;;;;;;13.93;9.63;;;8.90;99.90;;;;;;6308114;22;20349;-90
2021/10/19 02:17:02;;;;;;;12.40;8.75;;;8.90;99.90;;;;;;6282930;22;20031;-88
2021/10/19 02:19:50;;;;;;;13.73;8.27;;;8.90;99.90;;;;;;6284086;22;20027;-90
2021/10/19 02:22:37;;;;;;;12.15;8.13;;;8.90;99.90;;;;;;6305702;22;20027;-86
2021/10/19 02:25:25;;;;;;;11.73;8.80;;;9.00;99.90;;;;;;6306276;22;20034;-88
2021/10/19 02:28:12;;;;;;;10.75;7.97;;;9.00;99.90;;;;;;6263687;22;20361;-87
2021/10/19 02:31:00;;;;;;;11.52;7.93;;;9.10;99.90;;;;;;6306803;22;20448;-89
2021/10/19 02:33:49;;;;;;;10.43;7.85;;;9.20;99.90;;;;;;6306764;22;20357;-91
2021/10/19 02:36:37;;;;;;;10.00;7.65;;;9.20;99.90;;;;;;6303913;22;20027;-89
2021/10/19 02:39:26;;;;;;;11.60;8.57;;;9.20;99.90;;;;;;6263251;22;20031;-90
2021/10/19 02:42:14;;;;;;;10.50;7.05;;;9.20;99.90;;;;;;6241174;22;20035;-90
2021/10/19 02:45:05;;;;;;;10.40;7.43;;;9.20;99.90;;;;;;6306795;22;20387;-91
2021/10/19 02:47:53;;;;;;;10.70;7.18;;;9.20;99.90;;;;;;6283453;22;20402;-89
2021/10/19 02:50:40;;;;;;;10.00;7.57;;;9.20;99.90;;;;;;6285423;22;20033;-87
2021/10/19 02:53:29;;;;;;;10.52;7.05;;;9.30;99.90;;;;;;6263500;22;20333;-88
2021/10/19 02:56:19;;;;;;;7.82;6.95;;;9.20;99.90;;;;;;6264641;22;20031;-90
2021/10/19 02:59:06;;;;;;;10.32;7.50;;;9.20;99.90;;;;;;6283126;22;20104;-90
2021/10/19 03:01:56;;;;;;;9.13;6.95;;;9.30;99.90;;;;;;6282039;22;20096;-90
2021/10/19 03:04:44;;;;;;;11.88;8.18;;;9.30;99.90;;;;;;6305679;22;20035;-89
2021/10/19 03:07:31;;;;;;;12.32;7.82;;;9.30;99.90;;;;;;6263086;22;20019;-89
2021/10/19 03:10:18;;;;;;;15.75;8.07;;;9.30;99.90;;;;;;6282770;22;20640;-89
2021/10/19 03:13:08;;;;;;;14.32;8.07;;;9.40;99.90;;;;;;6304687;22;20088;-89
2021/10/19 03:15:58;;;;;;;11.05;8.70;;;9.60;99.90;;;;;;6261888;22;20031;-90
2021/10/19 03:18:46;;;;;;;10.35;8.57;;;9.70;99.90;;;;;;6305169;22;20058;-89
2021/10/19 03:21:35;;;;;;;13.05;9.40;;;9.80;99.90;;;;;;6281908;22;20076;-88
2021/10/19 03:24:23;;;;;;;13.70;9.50;;;9.90;99.90;;;;;;6283462;22;20114;-90
2021/10/19 03:27:12;;;;;;;16.50;9.07;;;10.00;99.90;;;;;;6263727;22;20062;-89
2021/10/19 03:30:00;;;;;;;12.93;9.07;;;10.00;99.90;;;;;;6283869;22;20030;-90
2021/10/19 03:32:50;;;;;;;12.50;8.65;;;10.00;99.90;;;;;;6282560;22;20028;-88
2021/10/19 03:35:37;;;;;;;15.05;8.82;;;10.00;99.90;;;;;;6304222;22;20035;-88
2021/10/19 03:38:25;;;;;;;13.27;9.10;;;10.00;99.90;;;;;;6282743;22;20037;-89
2021/10/19 03:41:13;;;;;;;14.25;9.43;;;10.00;99.90;;;;;;6283041;22;20027;-89
2021/10/19 03:44:00;;;;;;;13.82;10.27;;;10.20;99.90;;;;;;6283594;22;20115;-89
2021/10/19 03:46:50;;;;;;;12.98;9.35;;;10.20;99.90;;;;;;6280829;22;20023;-89
2021/10/19 03:49:38;;;;;;;11.85;9.07;;;10.30;99.90;;;;;;6283474;22;20042;-89
2021/10/19 03:52:27;;;;;;;14.35;10.00;;;10.40;99.90;;;;;;6262496;22;20023;-89
2021/10/19 03:55:14;;;;;;;15.07;9.55;;;10.40;99.90;;;;;;6263452;22;20023;-88
2021/10/19 03:58:05;;;;;;;13.80;9.98;;;10.40;99.90;;;;;;6305652;22;20038;-89
2021/10/19 04:00:54;;;;;;;14.05;9.93;;;10.40;99.90;;;;;;6320036;22;20033;-87
2021/10/19 04:04:19;;;;;;;15.70;9.40;;;10.50;99.90;;;;;;6296319;22;20072;-86
2021/10/19 04:07:13;;;;;;;15.75;10.35;;;10.30;99.90;;;;;;6308204;22;20108;-87
2021/10/19 04:10:03;;;;;;;15.45;11.10;;;10.30;99.90;;;;;;6290483;22;20076;-88
2021/10/19 04:12:51;;;;;;;15.20;11.57;;;10.20;99.90;;;;;;6307363;22;20109;-91
2021/10/19 04:15:39;;;;;;;15.52;11.50;;;10.10;99.90;;;;;;6266947;22;20141;-88
2021/10/19 04:18:31;;;;;;;16.27;11.35;;;10.10;99.90;;;;;;6284976;22;20043;-88
2021/10/19 04:21:18;;;;;;;15.52;11.15;;;10.00;99.90;;;;;;6264316;22;20027;-88
2021/10/19 04:24:05;;;;;;;16.80;11.55;;;10.00;99.90;;;;;;6284594;22;20336;-88
2021/10/19 04:26:56;;;;;;;19.58;12.00;;;10.00;99.90;;;;;;6243593;22;20026;-90
2021/10/19 04:29:44;;;;;;;16.75;12.40;;;10.00;99.90;;;;;;6288966;22;20027;-91
2021/10/19 04:32:33;;;;;;;18.27;12.82;;;10.10;99.90;;;;;;6290298;22;20057;-92
2021/10/19 04:35:20;;;;;;;16.10;12.27;;;10.20;99.90;;;;;;6309977;22;20095;-92
2021/10/19 04:38:08;;;;;;;18.30;12.30;;;10.20;99.90;;;;;;6283937;22;20031;-91
2021/10/19 04:40:57;;;;;;;17.00;11.23;;;10.30;99.90;;;;;;6306981;22;20455;-91
2021/10/19 04:43:44;;;;;;;17.63;13.18;;;10.40;99.90;;;;;;6306750;22;20023;-91
2021/10/19 04:46:40;;;;;;;16.05;11.52;;;10.40;99.90;;;;;;6307868;22;20072;-93
2021/10/19 04:49:29;;;;;;;18.65;12.35;;;10.40;99.90;;;;;;6284990;22;20045;-90
2021/10/19 04:52:18;;;;;;;17.30;12.05;;;10.40;99.90;;;;;;6309316;22;20027;-91
2021/10/19 04:55:06;;;;;;;21.85;13.55;;;10.50;99.90;;;;;;6286181;22;20078;-92
2021/10/19 04:57:54;;;;;;;16.63;11.93;;;10.60;99.90;;;;;;6285255;22;20035;-92
2021/10/19 05:00:43;;;;;;;17.63;13.05;;;10.60;99.90;;;;;;6286936;22;20081;-90
2021/10/19 05:03:30;;;;;;;18.25;12.55;;;10.70;99.90;;;;;;6290306;22;20043;-90
2021/10/19 05:06:18;;;;;;;18.70;13.00;;;10.70;99.90;;;;;;6270290;22;20031;-91
2021/10/19 05:09:05;;;;;;;18.13;13.30;;;10.70;99.90;;;;;;6286587;22;20418;-89
2021/10/19 05:11:53;;;;;;;15.80;12.02;;;10.60;99.90;;;;;;6309664;22;20011;-89
2021/10/19 05:14:42;;;;;;;19.90;13.40;;;10.70;99.90;;;;;;6307593;22;20046;-90
2021/10/19 05:17:29;;;;;;;17.75;13.30;;;10.70;99.90;;;;;;6288286;22;20035;-90
2021/10/19 05:20:17;;;;;;;22.38;14.13;;;10.60;99.90;;;;;;6306942;22;20070;-90
2021/10/19 05:23:04;;;;;;;19.27;14.55;;;10.50;99.90;;;;;;6284424;22;20080;-88
2021/10/19 05:25:51;;;;;;;19.60;15.15;;;10.40;99.90;;;;;;6307178;22;20019;-89
2021/10/19 05:29:09;;;;;;;22.25;16.08;;;10.20;99.90;;;;;;6284750;22;20042;-91
2021/10/19 05:32:17;;;;;;;23.13;17.02;;;10.10;99.90;;;;;;6290801;22;20037;-91
2021/10/19 05:35:17;;;;;;;28.20;17.67;;;9.90;99.90;;;;;;6270701;22;20097;-85
2021/10/19 05:38:23;;;;;;;23.85;17.27;;;9.80;99.90;;;;;;6244325;22;20123;-89
2021/10/19 05:41:52;;;;;;;24.30;17.65;;;9.70;99.90;;;;;;6279378;22;20433;-88
2021/10/19 05:45:13;;;;;;;32.28;17.45;;;9.70;99.90;;;;;;6307509;22;20023;-88
2021/10/19 05:49:09;;;;;;;;;;;;;;;;;;;;;
2021/10/19 05:52:23;;;;;;;;;;;;;;;;;;;;;
2021/10/19 05:59:05;;;;;;;;;;;;;;;;;;;;;
2021/10/19 06:07:09;;;;;;;;;;;;;;;;;;;;;
2021/10/19 06:10:11;;;;;;;22.48;13.25;;;10.00;99.90;;;;;;6027783;23;20031;-88
2021/10/19 06:17:23;;;;;;;;;;;;;;;;;;;;;
2021/10/19 06:20:52;;;;;;;15.80;11.40;;;10.30;99.90;;;;;;5898496;24;20071;-87
2021/10/19 06:24:41;;;;;;;18.52;12.20;;;10.40;99.90;;;;;;5949321;24;20084;-90
2021/10/19 06:27:47;;;;;;;16.08;11.65;;;10.50;99.90;;;;;;6069737;23;20151;-88
2021/10/19 06:30:41;;;;;;;18.15;11.88;;;10.50;99.90;;;;;;6106011;23;20114;-87
2021/10/19 06:33:59;;;;;;;15.98;11.50;;;10.50;99.90;;;;;;6126789;23;20018;-88
2021/10/19 06:37:17;;;;;;;16.85;11.10;;;10.50;99.90;;;;;;6133787;22;20048;-88
2021/10/19 06:40:28;;;;;;;;;;;;;;;;;;;;;
2021/10/19 06:43:20;;;;;;;16.23;11.15;;;10.30;99.90;;;;;;6305310;22;20027;-87
2021/10/19 06:46:30;;;;;;;14.60;10.52;;;10.30;99.90;;;;;;6287950;22;20075;-88
2021/10/19 06:49:29;;;;;;;15.35;10.07;;;10.40;99.90;;;;;;6311287;22;20077;-87
2021/10/19 06:52:28;;;;;;;;;;;;;;;;;;;;;
2021/10/19 06:55:49;;;;;;;;;;;;;;;;;;;;;
2021/10/19 06:59:08;;;;;;;10.95;7.90;;;10.50;99.90;;;;;;6217829;23;20048;-88
2021/10/19 07:02:19;;;;;;;9.07;7.35;;;10.60;99.90;;;;;;6207439;23;20020;-87
2021/10/19 07:05:28;;;;;;;10.98;7.75;;;10.70;99.90;;;;;;6198425;23;20021;-87
2021/10/19 07:12:25;;;;;;;;;;;;;;;;;;;;;
2021/10/19 07:15:53;;;;;;;11.98;8.48;;;10.70;99.90;;;;;;6273410;22;20106;-87
2021/10/19 07:19:06;;;;;;;11.52;7.93;;;10.60;99.90;;;;;;6305084;22;20065;-88
2021/10/19 07:22:30;;;;;;;11.05;7.55;;;10.50;99.90;;;;;;6204301;23;20068;-89
2021/10/19 07:26:04;;;;;;;;;;;;;;;;;;;;;
2021/10/19 07:28:54;;;;;;;13.05;7.38;;;10.60;99.90;;;;;;6210824;23;20613;-87
2021/10/19 07:32:05;;;;;;;10.20;7.50;;;10.60;99.90;;;;;;6081698;23;20049;-89
2021/10/19 07:35:17;;;;;;;11.00;7.40;;;10.70;99.90;;;;;;6076486;23;20354;-87
2021/10/19 07:38:52;;;;;;;9.23;6.88;;;10.80;99.90;;;;;;6043434;23;20031;-88
2021/10/19 07:41:42;;;;;;;13.18;6.55;;;10.80;99.90;;;;;;6068812;23;20428;-88
2021/10/19 07:44:53;;;;;;;9.57;6.18;;;11.00;99.90;;;;;;6094336;23;20539;-87
2021/10/19 07:51:33;;;;;;;11.25;6.68;;;10.90;99.90;;;;;;6063553;23;20027;-85
2021/10/19 07:54:34;;;;;;;7.78;5.88;;;10.90;99.90;;;;;;6063445;23;20118;-87
2021/10/19 07:57:30;;;;;;;8.85;5.70;;;11.00;99.90;;;;;;6151255;23;20049;-87
2021/10/19 08:00:29;;;;;;;9.88;5.85;;;11.00;99.90;;;;;;6137376;23;20118;-87
2021/10/19 08:03:20;;;;;;;13.70;6.57;;;11.00;99.90;;;;;;6143876;23;20029;-86
2021/10/19 08:06:38;;;;;;;;;;;;;;;;;;;;;
2021/10/19 08:09:33;;;;;;;8.70;6.28;;;11.00;99.90;;;;;;6287779;22;20075;-87
2021/10/19 08:12:26;;;;;;;8.85;6.40;;;11.10;99.90;;;;;;6285517;22;20015;-88
2021/10/19 08:15:20;;;;;;;10.18;7.13;;;11.30;99.90;;;;;;6303976;22;20329;-88
2021/10/19 08:18:29;;;;;;;11.55;6.55;;;11.40;99.90;;;;;;6208139;23;20112;-88
2021/10/19 08:21:20;;;;;;;7.63;6.03;;;11.40;99.90;;;;;;6209981;23;20024;-88
2021/10/19 08:24:10;;;;;;;7.15;5.70;;;11.50;99.90;;;;;;6189233;23;20048;-86
2021/10/19 08:27:04;;;;;;;7.90;5.60;;;11.50;99.90;;;;;;6171664;23;20172;-87
2021/10/19 08:29:54;;;;;;;8.73;6.60;;;11.50;99.90;;;;;;6170524;23;20032;-87
2021/10/19 08:32:43;;;;;;;11.43;6.65;;;11.50;99.90;;;;;;6211697;23;20024;-87
2021/10/19 08:35:32;;;;;;;13.40;7.32;;;11.50;99.90;;;;;;6191260;23;20447;-86
2021/10/19 08:38:26;;;;;;;12.98;8.18;;;11.50;99.90;;;;;;6219218;23;20103;-87
2021/10/19 08:41:22;;;;;;;13.53;7.73;;;11.50;99.90;;;;;;6201009;23;20055;-88
2021/10/19 08:44:41;;;;;;;12.90;7.53;;;11.50;99.90;;;;;;6070745;23;20274;-87
2021/10/19 08:47:47;;;;;;;9.50;7.25;;;11.50;99.90;;;;;;6068562;23;20447;-88
2021/10/19 08:51:04;;;;;;;13.30;6.80;;;11.60;99.90;;;;;;6157038;23;20100;-88
2021/10/19 08:53:55;;;;;;;15.48;7.13;;;11.70;99.90;;;;;;6135739;23;20025;-88
2021/10/19 08:56:50;;;;;;;9.18;6.47;;;11.80;99.90;;;;;;6150796;23;20030;-87
2021/10/19 08:59:57;;;;;;;11.68;7.40;;;11.90;99.90;;;;;;6132456;23;20108;-87
2021/10/19 09:03:09;;;;;;;9.85;6.50;;;11.90;99.90;;;;;;6273250;22;20031;-86
2021/10/19 09:06:18;;;;;;;8.65;6.45;;;12.00;99.90;;;;;;6286374;22;20042;-86
2021/10/19 09:09:16;;;;;;;9.57;6.78;;;12.00;99.90;;;;;;6290392;22;20035;-89
2021/10/19 09:12:06;;;;;;;11.15;6.82;;;11.90;99.90;;;;;;6319069;22;20071;-86
2021/10/19 09:15:05;;;;;;;13.77;7.32;;;11.90;99.90;;;;;;6320135;22;20051;-86
2021/10/19 09:18:02;;;;;;;10.38;6.63;;;11.80;99.90;;;;;;6308042;22;20027;-87
2021/10/19 09:21:09;;;;;;;10.10;6.32;;;11.80;99.90;;;;;;6310363;22;20023;-84
2021/10/19 09:24:20;;;;;;;9.73;6.93;;;11.90;99.90;;;;;;6266671;22;20023;-85
2021/10/19 09:27:28;;;;;;;9.00;6.05;;;12.00;99.90;;;;;;6215420;23;20025;-85
2021/10/19 09:30:15;;;;;;;13.15;5.35;;;12.10;99.90;;;;;;6215840;23;20122;-86
2021/10/19 09:33:19;;;;;;;7.40;5.15;;;12.10;99.90;;;;;;6197830;23;20099;-88
2021/10/19 09:36:09;;;;;;;7.38;4.75;;;12.30;99.90;;;;;;6216980;23;20043;-87
2021/10/19 09:38:57;;;;;;;7.50;4.20;;;12.30;99.90;;;;;;6218140;23;20052;-88
2021/10/19 09:41:58;;;;;;;6.63;4.18;;;12.40;99.90;;;;;;6215611;23;20031;-88
2021/10/19 09:45:04;;;;;;;9.15;5.07;;;12.40;99.90;;;;;;6216767;23;20047;-89
2021/10/19 09:48:27;;;;;;;8.00;5.30;;;12.30;99.90;;;;;;6217503;23;20040;-88
2021/10/19 09:51:34;;;;;;;5.93;5.03;;;12.20;99.90;;;;;;6236775;22;20090;-88
2021/10/19 09:54:31;;;;;;;6.07;5.05;;;11.80;99.90;;;;;;6290639;22;20019;-89
2021/10/19 09:57:49;;;;;;;;;;;;;;;;;;;;;
2021/10/19 10:01:00;;;;;;;7.45;5.03;;;11.60;99.90;;;;;;6182518;23;20037;-88
2021/10/19 10:03:59;;;;;;;7.63;5.43;;;11.50;99.90;;;;;;6180987;23;20438;-89
2021/10/19 10:07:29;;;;;;;;;;;;;;;;;;;;;
2021/10/19 10:11:13;;;;;;;;;;;;;;;;;;;;;
2021/10/19 10:14:49;;;;;;;7.53;4.95;;;11.60;99.90;;;;;;6030477;23;20110;-89
2021/10/19 10:26:11;;;;;;;;;;;;;;;;;;;;;
2021/10/19 10:29:59;;;;;;;7.43;4.60;;;12.10;99.90;;;;;;5924270;24;20108;-89
2021/10/19 10:33:09;;;;;;;4.75;3.72;;;12.30;99.90;;;;;;5924472;24;20059;-87
2021/10/19 10:36:01;;;;;;;4.70;3.88;;;12.50;99.90;;;;;;5962660;23;20392;-89
2021/10/19 10:39:00;;;;;;;4.47;3.37;;;12.60;99.90;;;;;;6065811;23;20047;-86
2021/10/19 10:42:11;;;;;;;5.60;4.18;;;12.60;99.90;;;;;;6130451;23;20113;-89
2021/10/19 10:46:06;;;;;;;;;;;;;;;;;;;;;
2021/10/19 10:49:14;;;;;;;;;;;;;;;;;;;;;
2021/10/19 10:52:38;;;;;;;3.85;3.30;;;13.00;99.90;;;;;;6255577;22;20024;-89
2021/10/19 10:56:18;;;;;;;5.97;3.85;;;13.40;99.90;;;;;;6252163;22;20153;-90
2021/10/19 10:59:39;;;;;;;4.07;3.40;;;13.60;99.90;;;;;;6274366;22;20031;-89
2021/10/19 11:06:55;;;;;;;4.78;3.35;;;14.30;99.90;;;;;;6023128;23;20027;-90
2021/10/19 11:10:18;;;;;;;6.47;3.58;;;14.60;99.90;;;;;;6161672;23;20096;-89
2021/10/19 11:13:54;;;;;;;;;;;;;;;;;;;;;
2021/10/19 11:17:23;;;;;;;;;;;;;;;;;;;;;
2021/10/19 11:25:21;;;;;;;;;;;;;;;;;;;;;
2021/10/19 11:28:45;;;;;;;5.22;3.50;;;15.10;99.90;;;;;;6060813;23;20023;-89
2021/10/19 11:31:43;;;;;;;5.40;2.78;;;14.60;99.90;;;;;;6068689;23;20104;-89
2021/10/19 11:34:42;;;;;;;2.85;2.55;;;14.40;99.90;;;;;;6087255;23;20093;-90
2021/10/19 11:37:44;;;;;;;5.03;2.70;;;14.10;99.90;;;;;;6123657;22;20028;-88
2021/10/19 11:40:53;;;;;;;2.70;2.50;;;13.90;99.90;;;;;;6255633;22;20028;-87
2021/10/19 11:43:54;;;;;;;3.20;2.88;;;13.90;99.90;;;;;;6251205;22;20028;-89
2021/10/19 11:47:27;;;;;;;4.20;2.80;;;13.80;99.90;;;;;;6134757;23;20108;-89
2021/10/19 11:50:45;;;;;;;4.65;3.30;;;13.80;99.90;;;;;;6129905;23;20025;-89
2021/10/19 11:54:15;;;;;;;;;;;;;;;;;;;;;
2021/10/19 11:58:08;;;;;;;3.83;3.15;;;13.80;99.90;;;;;;6065711;23;20430;-90
2021/10/19 12:01:22;;;;;;;6.00;3.60;;;13.90;99.90;;;;;;6006924;23;20337;-89
2021/10/19 12:16:49;;;;;;;;;;;;;;;;;;;;;
2021/10/19 12:20:09;;;;;;;;;;;;;;;;;;;;;
2021/10/19 12:27:22;;;;;;;8.20;5.25;;;14.40;99.90;;;;;;6100947;23;20129;-89
2021/10/19 12:30:22;;;;;;;6.60;4.68;;;14.40;99.90;;;;;;6151479;23;20034;-88
2021/10/19 12:33:24;;;;;;;9.10;6.25;;;14.50;99.90;;;;;;6184307;23;20107;-88
2021/10/19 12:36:46;;;;;;;8.30;5.28;;;14.70;99.90;;;;;;6224316;23;20089;-88
2021/10/19 12:40:06;;;;;;;7.28;5.13;;;15.00;99.90;;;;;;6239003;23;20028;-89
2021/10/19 12:43:15;;;;;;;7.95;4.70;;;15.40;99.90;;;;;;6205745;23;20058;-88
2021/10/19 12:46:25;;;;;;;5.93;4.45;;;15.60;99.90;;;;;;6242142;23;20113;-88
2021/10/19 12:49:16;;;;;;;7.32;3.75;;;15.90;99.90;;;;;;6242427;23;20056;-87
2021/10/19 12:52:05;;;;;;;4.95;3.88;;;16.30;99.90;;;;;;6241131;23;20086;-86
2021/10/19 12:54:54;;;;;;;4.53;3.80;;;16.60;99.90;;;;;;6220098;23;20020;-88
2021/10/19 12:57:49;;;;;;;8.88;3.85;;;17.10;99.90;;;;;;6200620;23;20038;-86
2021/10/19 13:00:36;;;;;;;9.38;4.22;;;17.70;99.80;;;;;;6219073;22;20047;-87
2021/10/19 13:03:25;;;;;;;9.65;3.85;;;18.00;97.60;;;;;;6273149;22;20049;-86
2021/10/19 13:06:16;;;;;;;5.45;3.80;;;17.80;96.40;;;;;;6271839;22;20102;-86
2021/10/19 13:09:12;;;;;;;5.65;4.13;;;17.70;96.70;;;;;;6252069;22;20019;-88
2021/10/19 13:12:02;;;;;;;5.65;3.70;;;17.50;96.60;;;;;;6250933;22;20035;-88
2021/10/19 13:14:49;;;;;;;6.55;3.70;;;17.20;96.30;;;;;;6271009;22;20015;-89
2021/10/19 13:17:45;;;;;;;5.30;3.58;;;17.10;97.00;;;;;;6275144;22;20114;-88
2021/10/19 13:20:58;;;;;;;6.63;3.95;;;17.00;97.40;;;;;;6246839;22;20039;-87
2021/10/19 13:23:51;;;;;;;5.75;4.10;;;16.70;97.60;;;;;;6273842;22;20031;-87
2021/10/19 13:26:58;;;;;;;5.10;3.92;;;16.50;98.90;;;;;;6274724;22;20039;-88
2021/10/19 13:29:50;;;;;;;5.22;3.55;;;16.30;99.70;;;;;;6254208;22;20027;-88
2021/10/19 13:32:58;;;;;;;;;;;;;;;;;;;;;
2021/10/19 13:35:54;;;;;;;6.38;3.58;;;16.40;99.90;;;;;;6275336;22;20050;-88
2021/10/19 13:39:05;;;;;;;6.65;3.85;;;16.30;99.60;;;;;;6273066;22;20028;-88
2021/10/19 13:42:03;;;;;;;6.78;3.40;;;16.30;99.60;;;;;;6273176;22;20027;-88
2021/10/19 13:53:25;;;;;;;;;;;;;;;;;;;;;
2021/10/19 13:56:36;;;;;;;7.22;3.75;;;16.40;99.90;;;;;;5953135;24;20077;-87
2021/10/19 13:59:39;;;;;;;8.90;3.30;;;16.40;99.90;;;;;;6029784;23;20121;-86
2021/10/19 14:02:28;;;;;;;8.95;4.22;;;16.40;99.90;;;;;;6035872;23;20037;-87
2021/10/19 14:05:24;;;;;;;5.65;3.95;;;16.40;99.90;;;;;;6070519;23;20023;-87
2021/10/19 14:08:35;;;;;;;;;;;;;;;;;;;;;
2021/10/19 14:11:43;;;;;;;7.32;4.15;;;16.30;99.90;;;;;;6060419;23;20379;-87
2021/10/19 14:14:34;;;;;;;7.32;3.78;;;16.20;99.90;;;;;;6062431;23;20286;-86
2021/10/19 14:17:36;;;;;;;7.22;3.83;;;16.30;99.90;;;;;;6045831;23;20035;-88
2021/10/19 14:20:27;;;;;;;6.50;3.67;;;16.30;99.90;;;;;;6044876;23;20117;-87
2021/10/19 14:23:37;;;;;;;5.25;3.95;;;16.40;99.90;;;;;;6076165;23;20031;-85
2021/10/19 14:26:25;;;;;;;6.13;3.90;;;16.50;99.90;;;;;;6108435;23;20084;-86
2021/10/19 14:29:14;;;;;;;5.28;3.55;;;16.60;99.90;;;;;;6183327;23;20468;-87
2021/10/19 14:32:02;;;;;;;4.63;3.15;;;16.70;99.90;;;;;;6163855;23;20040;-85
2021/10/19 14:34:51;;;;;;;5.40;3.35;;;16.70;99.70;;;;;;6164538;23;20104;-86
2021/10/19 14:37:38;;;;;;;4.45;3.33;;;16.60;99.90;;;;;;6146079;23;20040;-86
2021/10/19 14:41:10;;;;;;;;;;;;;;;;;;;;;
2021/10/19 14:44:09;;;;;;;6.05;3.75;;;16.50;99.90;;;;;;6185804;23;20029;-87
2021/10/19 14:47:15;;;;;;;3.88;3.20;;;16.40;99.80;;;;;;6170690;23;20421;-88
2021/10/19 14:50:08;;;;;;;5.60;3.55;;;16.40;99.90;;;;;;6186322;23;20021;-87
2021/10/19 14:57:22;;;;;;;;;;;;;;;;;;;;;
2021/10/19 15:00:13;;;;;;;5.38;3.13;;;16.30;99.90;;;;;;6250452;23;20032;-87
2021/10/19 15:03:01;;;;;;;4.88;3.67;;;16.40;99.90;;;;;;6227121;23;20030;-87
2021/10/19 15:05:59;;;;;;;4.60;3.40;;;16.90;99.80;;;;;;6225418;23;20105;-88
2021/10/19 15:09:18;;;;;;;5.72;3.50;;;18.40;97.50;;;;;;6226429;23;20043;-87
2021/10/19 15:12:08;;;;;;;4.03;3.25;;;19.80;92.50;;;;;;6208107;23;20076;-86
2021/10/19 15:14:58;;;;;;;7.53;3.05;;;21.20;85.50;;;;;;6228567;23;20139;-88
2021/10/19 15:17:49;;;;;;;;;;;21.50;81.60;;;;;;6229224;23;20056;-84
2021/10/19 15:21:01;;;;;;;6.97;3.58;;;22.00;77.00;;;;;;6253830;23;19945;-87
2021/10/19 15:23:53;;;;;;;6.63;3.15;;;22.20;76.20;;;;;;6230943;23;20023;-88
2021/10/19 15:26:41;;;;;;;5.38;3.20;;;22.70;73.70;;;;;;6232968;23;20020;-87
2021/10/19 15:29:56;;;;;;;5.38;3.45;;;22.60;71.30;;;;;;6223598;23;20143;-88
2021/10/19 15:33:22;;;;;;;7.63;3.30;;;22.70;69.50;;;;;;6238388;23;20068;-87
2021/10/19 15:36:30;;;;;;;9.57;3.27;;;22.60;68.60;;;;;;6237513;23;20279;-87
2021/10/19 15:39:38;;;;;;;5.10;3.03;;;22.00;70.40;;;;;;6244000;23;20055;-85
2021/10/19 15:42:25;;;;;;;6.38;3.47;;;21.50;71.30;;;;;;6264381;23;20429;-84
2021/10/19 15:45:33;;;;;;;7.07;3.47;;;21.10;72.70;;;;;;6252810;23;20024;-89
2021/10/19 15:48:22;;;;;;;4.22;3.10;;;19.60;79.10;;;;;;6209211;23;20020;-86
2021/10/19 15:51:09;;;;;;;7.38;3.53;;;18.60;85.20;;;;;;6250845;23;20024;-85
2021/10/19 15:53:57;;;;;;;7.78;3.20;;;17.80;90.50;;;;;;6251928;23;20136;-86
2021/10/19 15:57:06;;;;;;;5.90;3.58;;;17.20;92.70;;;;;;6225629;23;20112;-85
2021/10/19 15:59:54;;;;;;;6.03;3.53;;;16.60;95.40;;;;;;6222586;22;20131;-87
2021/10/19 16:02:45;;;;;;;4.30;3.58;;;16.30;97.70;;;;;;6241102;23;20485;-87
2021/10/19 16:05:35;;;;;;;6.40;3.92;;;16.10;98.90;;;;;;6223912;23;20030;-86
2021/10/19 16:08:25;;;;;;;7.43;3.90;;;15.90;99.90;;;;;;6242682;23;20031;-88
2021/10/19 16:11:16;;;;;;;5.70;3.60;;;15.80;99.90;;;;;;6221163;23;20024;-87
2021/10/19 16:14:04;;;;;;;5.40;3.80;;;15.60;99.90;;;;;;6221788;23;20031;-88
2021/10/19 16:16:54;;;;;;;7.60;4.20;;;15.50;99.90;;;;;;6243488;23;20035;-88
2021/10/19 16:19:44;;;;;;;6.57;4.43;;;15.30;99.90;;;;;;6245197;23;20024;-88
2021/10/19 16:22:32;;;;;;;5.60;3.95;;;15.20;99.90;;;;;;6225042;23;20024;-87
2021/10/19 16:25:20;;;;;;;8.18;4.20;;;15.10;99.90;;;;;;6243513;23;20028;-87
2021/10/19 16:28:12;;;;;;;12.02;4.32;;;15.00;99.90;;;;;;6242101;23;20071;-87
2021/10/19 16:31:00;;;;;;;6.40;4.30;;;14.90;99.90;;;;;;6221081;23;20044;-87
2021/10/19 16:33:51;;;;;;;7.80;4.25;;;14.80;99.90;;;;;;6201567;23;20020;-87
2021/10/19 16:36:41;;;;;;;5.18;4.65;;;14.70;99.90;;;;;;6240659;23;20016;-87
2021/10/19 16:39:28;;;;;;;9.70;4.50;;;14.60;99.90;;;;;;6242800;23;20028;-87
2021/10/19 16:42:18;;;;;;;7.30;4.38;;;14.50;99.90;;;;;;6221151;23;20024;-86
2021/10/19 16:45:13;;;;;;;10.43;4.90;;;14.40;99.90;;;;;;6246839;23;20024;-88
2021/10/19 16:48:09;;;;;;;8.10;5.10;;;14.30;99.90;;;;;;6251007;23;20090;-87
2021/10/19 16:51:05;;;;;;;7.70;5.00;;;14.20;99.90;;;;;;6243879;23;20051;-89
2021/10/19 16:53:55;;;;;;;8.23;4.88;;;14.10;99.90;;;;;;6221193;23;20156;-89
2021/10/19 16:56:45;;;;;;;7.25;5.25;;;14.00;99.90;;;;;;6226185;23;20077;-89
2021/10/19 16:59:35;;;;;;;10.45;5.45;;;13.90;99.90;;;;;;6224596;22;20094;-88
2021/10/19 17:02:22;;;;;;;7.82;4.63;;;13.80;99.90;;;;;;6245741;23;20308;-89
2021/10/19 17:05:10;;;;;;;8.70;5.35;;;13.70;99.90;;;;;;6224622;23;20399;-88
2021/10/19 17:07:58;;;;;;;9.73;6.35;;;13.50;99.90;;;;;;6223496;23;20031;-88